sensor_id;sensor_type;location;lat;lon;timestamp;P1;durP1;ratioP1;P2;durP2;ratioP2
30553;SDS011;17335;50.720;7.452;2023-03-01T00:01:04;11.82;;;5.68;;
30553;SDS011;17335;50.720;7.452;2023-03-01T00:03:33;16.80;;;6.45;;
30553;SDS011;17335;50.720;7.452;2023-03-01T00:06:00;11.55;;;5.85;;
30553;SDS011;17335;50.720;7.452;2023-03-01T00:08:27;13.88;;;6.03;;
30553;SDS011;17335;50.720;7.452;2023-03-01T00:13:33;17.77;;;6.57;;
30553;SDS011;17335;50.720;7.452;2023-03-01T00:16:06;15.52;;;7.05;;
30553;SDS011;17335;50.720;7.452;2023-03-01T00:18:35;13.68;;;6.78;;
30553;SDS011;17335;50.720;7.452;2023-03-01T00:21:02;17.83;;;7.45;;
30553;SDS011;17335;50.720;7.452;2023-03-01T00:23:29;16.52;;;6.45;;
30553;SDS011;17335;50.720;7.452;2023-03-01T00:25:55;13.57;;;7.13;;
30553;SDS011;17335;50.720;7.452;2023-03-01T00:28:22;14.52;;;6.60;;
30553;SDS011;17335;50.720;7.452;2023-03-01T00:30:49;13.32;;;6.43;;
30553;SDS011;17335;50.720;7.452;2023-03-01T00:33:16;15.60;;;6.57;;
30553;SDS011;17335;50.720;7.452;2023-03-01T00:35:43;12.45;;;6.38;;
30553;SDS011;17335;50.720;7.452;2023-03-01T00:38:10;15.13;;;7.10;;
30553;SDS011;17335;50.720;7.452;2023-03-01T00:40:37;14.07;;;6.60;;
30553;SDS011;17335;50.720;7.452;2023-03-01T00:43:03;14.48;;;7.28;;
30553;SDS011;17335;50.720;7.452;2023-03-01T00:45:30;15.63;;;7.15;;
30553;SDS011;17335;50.720;7.452;2023-03-01T00:47:57;16.25;;;6.60;;
30553;SDS011;17335;50.720;7.452;2023-03-01T00:50:24;18.17;;;6.78;;
30553;SDS011;17335;50.720;7.452;2023-03-01T00:52:52;19.02;;;6.45;;
30553;SDS011;17335;50.720;7.452;2023-03-01T00:55:20;15.20;;;6.68;;
30553;SDS011;17335;50.720;7.452;2023-03-01T00:57:47;17.52;;;6.85;;
30553;SDS011;17335;50.720;7.452;2023-03-01T01:00:13;13.43;;;6.47;;
30553;SDS011;17335;50.720;7.452;2023-03-01T01:02:40;11.82;;;6.30;;
30553;SDS011;17335;50.720;7.452;2023-03-01T01:05:07;16.17;;;7.03;;
30553;SDS011;17335;50.720;7.452;2023-03-01T01:07:34;14.20;;;6.93;;
30553;SDS011;17335;50.720;7.452;2023-03-01T01:10:00;19.38;;;7.47;;
30553;SDS011;17335;50.720;7.452;2023-03-01T01:12:28;16.80;;;6.75;;
30553;SDS011;17335;50.720;7.452;2023-03-01T01:14:54;17.98;;;7.97;;
30553;SDS011;17335;50.720;7.452;2023-03-01T01:17:21;21.23;;;7.28;;
30553;SDS011;17335;50.720;7.452;2023-03-01T01:19:48;17.55;;;7.22;;
30553;SDS011;17335;50.720;7.452;2023-03-01T01:22:14;12.80;;;6.22;;
30553;SDS011;17335;50.720;7.452;2023-03-01T01:24:41;14.07;;;6.50;;
30553;SDS011;17335;50.720;7.452;2023-03-01T01:27:08;13.18;;;6.95;;
30553;SDS011;17335;50.720;7.452;2023-03-01T01:29:34;14.82;;;7.55;;
30553;SDS011;17335;50.720;7.452;2023-03-01T01:32:01;13.95;;;6.80;;
30553;SDS011;17335;50.720;7.452;2023-03-01T01:34:27;12.05;;;6.78;;
30553;SDS011;17335;50.720;7.452;2023-03-01T01:36:54;13.63;;;6.20;;
30553;SDS011;17335;50.720;7.452;2023-03-01T01:39:21;14.77;;;6.60;;
30553;SDS011;17335;50.720;7.452;2023-03-01T01:41:48;15.40;;;7.47;;
30553;SDS011;17335;50.720;7.452;2023-03-01T01:44:22;15.40;;;7.45;;
30553;SDS011;17335;50.720;7.452;2023-03-01T01:49:27;15.88;;;7.32;;
30553;SDS011;17335;50.720;7.452;2023-03-01T01:57:14;16.35;;;7.93;;
30553;SDS011;17335;50.720;7.452;2023-03-01T01:59:45;18.75;;;7.40;;
30553;SDS011;17335;50.720;7.452;2023-03-01T02:02:16;14.93;;;7.40;;
30553;SDS011;17335;50.720;7.452;2023-03-01T02:04:44;17.85;;;6.95;;
30553;SDS011;17335;50.720;7.452;2023-03-01T02:07:16;19.67;;;7.50;;
30553;SDS011;17335;50.720;7.452;2023-03-01T02:09:46;18.15;;;8.43;;
30553;SDS011;17335;50.720;7.452;2023-03-01T02:12:15;16.55;;;7.18;;
30553;SDS011;17335;50.720;7.452;2023-03-01T02:14:44;16.70;;;8.00;;
30553;SDS011;17335;50.720;7.452;2023-03-01T02:17:11;16.48;;;8.45;;
30553;SDS011;17335;50.720;7.452;2023-03-01T02:19:47;17.65;;;8.45;;
30553;SDS011;17335;50.720;7.452;2023-03-01T02:22:35;17.88;;;8.07;;
30553;SDS011;17335;50.720;7.452;2023-03-01T02:30:30;23.90;;;9.23;;
30553;SDS011;17335;50.720;7.452;2023-03-01T02:32:59;21.27;;;8.38;;
30553;SDS011;17335;50.720;7.452;2023-03-01T02:35:32;21.48;;;9.18;;
30553;SDS011;17335;50.720;7.452;2023-03-01T02:38:02;16.98;;;7.97;;
30553;SDS011;17335;50.720;7.452;2023-03-01T02:40:29;19.58;;;8.07;;
30553;SDS011;17335;50.720;7.452;2023-03-01T02:42:58;16.55;;;7.18;;
30553;SDS011;17335;50.720;7.452;2023-03-01T02:45:26;16.88;;;8.07;;
30553;SDS011;17335;50.720;7.452;2023-03-01T02:47:53;15.77;;;7.70;;
30553;SDS011;17335;50.720;7.452;2023-03-01T02:53:11;14.65;;;6.97;;
30553;SDS011;17335;50.720;7.452;2023-03-01T02:55:43;14.85;;;7.30;;
30553;SDS011;17335;50.720;7.452;2023-03-01T02:58:10;18.10;;;7.85;;
30553;SDS011;17335;50.720;7.452;2023-03-01T03:00:37;14.43;;;6.95;;
30553;SDS011;17335;50.720;7.452;2023-03-01T03:03:13;15.98;;;8.10;;
30553;SDS011;17335;50.720;7.452;2023-03-01T03:05:41;17.15;;;8.05;;
30553;SDS011;17335;50.720;7.452;2023-03-01T03:08:07;23.08;;;9.30;;
30553;SDS011;17335;50.720;7.452;2023-03-01T03:10:35;19.88;;;8.45;;
30553;SDS011;17335;50.720;7.452;2023-03-01T03:13:06;15.98;;;8.10;;
30553;SDS011;17335;50.720;7.452;2023-03-01T03:15:37;19.05;;;8.00;;
30553;SDS011;17335;50.720;7.452;2023-03-01T03:18:06;18.77;;;8.88;;
30553;SDS011;17335;50.720;7.452;2023-03-01T03:20:38;18.23;;;7.72;;
30553;SDS011;17335;50.720;7.452;2023-03-01T03:23:06;18.35;;;8.70;;
30553;SDS011;17335;50.720;7.452;2023-03-01T03:25:33;21.70;;;7.93;;
30553;SDS011;17335;50.720;7.452;2023-03-01T03:28:04;23.38;;;8.82;;
30553;SDS011;17335;50.720;7.452;2023-03-01T03:30:37;20.85;;;8.00;;
30553;SDS011;17335;50.720;7.452;2023-03-01T03:33:05;26.80;;;9.27;;
30553;SDS011;17335;50.720;7.452;2023-03-01T03:35:33;22.80;;;9.15;;
30553;SDS011;17335;50.720;7.452;2023-03-01T03:38:06;16.98;;;8.25;;
30553;SDS011;17335;50.720;7.452;2023-03-01T03:40:36;20.30;;;8.88;;
30553;SDS011;17335;50.720;7.452;2023-03-01T03:43:08;24.92;;;7.97;;
30553;SDS011;17335;50.720;7.452;2023-03-01T03:45:37;20.67;;;9.02;;
30553;SDS011;17335;50.720;7.452;2023-03-01T03:48:05;18.10;;;7.57;;
30553;SDS011;17335;50.720;7.452;2023-03-01T03:50:33;16.90;;;7.85;;
30553;SDS011;17335;50.720;7.452;2023-03-01T03:53:00;21.33;;;7.70;;
30553;SDS011;17335;50.720;7.452;2023-03-01T03:55:28;18.23;;;9.15;;
30553;SDS011;17335;50.720;7.452;2023-03-01T03:57:57;16.80;;;8.45;;
30553;SDS011;17335;50.720;7.452;2023-03-01T04:00:27;20.55;;;8.45;;
30553;SDS011;17335;50.720;7.452;2023-03-01T04:02:54;21.05;;;9.27;;
30553;SDS011;17335;50.720;7.452;2023-03-01T04:05:23;24.38;;;9.32;;
30553;SDS011;17335;50.720;7.452;2023-03-01T04:07:50;21.63;;;9.55;;
30553;SDS011;17335;50.720;7.452;2023-03-01T04:10:27;17.70;;;8.63;;
30553;SDS011;17335;50.720;7.452;2023-03-01T04:12:55;19.08;;;9.35;;
30553;SDS011;17335;50.720;7.452;2023-03-01T04:15:23;21.17;;;8.93;;
30553;SDS011;17335;50.720;7.452;2023-03-01T04:17:52;20.58;;;8.65;;
30553;SDS011;17335;50.720;7.452;2023-03-01T04:20:23;22.48;;;9.63;;
30553;SDS011;17335;50.720;7.452;2023-03-01T04:23:13;18.98;;;8.80;;
30553;SDS011;17335;50.720;7.452;2023-03-01T04:25:46;17.75;;;8.85;;
30553;SDS011;17335;50.720;7.452;2023-03-01T04:28:25;21.45;;;7.90;;
30553;SDS011;17335;50.720;7.452;2023-03-01T04:30:53;15.35;;;8.38;;
30553;SDS011;17335;50.720;7.452;2023-03-01T04:33:21;20.33;;;9.27;;
30553;SDS011;17335;50.720;7.452;2023-03-01T04:35:49;20.45;;;8.75;;
30553;SDS011;17335;50.720;7.452;2023-03-01T04:38:17;23.83;;;8.95;;
30553;SDS011;17335;50.720;7.452;2023-03-01T04:40:44;18.02;;;7.97;;
30553;SDS011;17335;50.720;7.452;2023-03-01T04:43:11;22.98;;;9.35;;
30553;SDS011;17335;50.720;7.452;2023-03-01T04:45:42;20.13;;;7.93;;
30553;SDS011;17335;50.720;7.452;2023-03-01T04:48:08;25.75;;;10.00;;
30553;SDS011;17335;50.720;7.452;2023-03-01T04:50:35;23.50;;;9.60;;
30553;SDS011;17335;50.720;7.452;2023-03-01T04:53:02;21.02;;;8.00;;
30553;SDS011;17335;50.720;7.452;2023-03-01T04:55:29;20.58;;;8.73;;
30553;SDS011;17335;50.720;7.452;2023-03-01T04:57:55;23.08;;;9.23;;
30553;SDS011;17335;50.720;7.452;2023-03-01T05:00:22;22.88;;;10.20;;
30553;SDS011;17335;50.720;7.452;2023-03-01T05:02:51;24.05;;;10.68;;
30553;SDS011;17335;50.720;7.452;2023-03-01T05:05:32;21.33;;;9.63;;
30553;SDS011;17335;50.720;7.452;2023-03-01T05:08:02;24.60;;;10.02;;
30553;SDS011;17335;50.720;7.452;2023-03-01T05:10:32;21.27;;;8.32;;
30553;SDS011;17335;50.720;7.452;2023-03-01T05:13:01;24.00;;;9.30;;
30553;SDS011;17335;50.720;7.452;2023-03-01T05:15:29;24.08;;;9.65;;
30553;SDS011;17335;50.720;7.452;2023-03-01T05:17:58;22.77;;;9.70;;
30553;SDS011;17335;50.720;7.452;2023-03-01T05:20:26;19.15;;;8.93;;
30553;SDS011;17335;50.720;7.452;2023-03-01T05:22:55;23.25;;;10.32;;
30553;SDS011;17335;50.720;7.452;2023-03-01T05:25:22;23.27;;;9.68;;
30553;SDS011;17335;50.720;7.452;2023-03-01T05:27:49;28.55;;;10.38;;
30553;SDS011;17335;50.720;7.452;2023-03-01T05:30:16;20.23;;;9.75;;
30553;SDS011;17335;50.720;7.452;2023-03-01T05:32:45;24.27;;;10.65;;
30553;SDS011;17335;50.720;7.452;2023-03-01T05:35:14;22.77;;;8.13;;
30553;SDS011;17335;50.720;7.452;2023-03-01T05:37:43;20.85;;;8.65;;
30553;SDS011;17335;50.720;7.452;2023-03-01T05:40:12;21.05;;;9.13;;
30553;SDS011;17335;50.720;7.452;2023-03-01T05:42:45;18.08;;;9.48;;
30553;SDS011;17335;50.720;7.452;2023-03-01T05:45:13;18.55;;;8.23;;
30553;SDS011;17335;50.720;7.452;2023-03-01T05:47:41;20.08;;;9.10;;
30553;SDS011;17335;50.720;7.452;2023-03-01T05:50:17;20.48;;;9.10;;
30553;SDS011;17335;50.720;7.452;2023-03-01T05:52:48;25.95;;;10.00;;
30553;SDS011;17335;50.720;7.452;2023-03-01T05:55:17;24.25;;;9.30;;
30553;SDS011;17335;50.720;7.452;2023-03-01T05:57:46;22.58;;;9.70;;
30553;SDS011;17335;50.720;7.452;2023-03-01T06:02:42;21.90;;;9.13;;
30553;SDS011;17335;50.720;7.452;2023-03-01T06:05:09;25.42;;;10.60;;
30553;SDS011;17335;50.720;7.452;2023-03-01T06:07:37;23.63;;;8.30;;
30553;SDS011;17335;50.720;7.452;2023-03-01T06:10:03;22.48;;;9.48;;
30553;SDS011;17335;50.720;7.452;2023-03-01T06:12:32;28.20;;;10.57;;
30553;SDS011;17335;50.720;7.452;2023-03-01T06:15:00;24.33;;;9.73;;
30553;SDS011;17335;50.720;7.452;2023-03-01T06:17:32;27.17;;;10.13;;
30553;SDS011;17335;50.720;7.452;2023-03-01T06:20:10;25.63;;;10.20;;
30553;SDS011;17335;50.720;7.452;2023-03-01T06:22:40;24.58;;;10.52;;
30553;SDS011;17335;50.720;7.452;2023-03-01T06:25:08;26.60;;;9.73;;
30553;SDS011;17335;50.720;7.452;2023-03-01T06:27:35;26.85;;;10.50;;
30553;SDS011;17335;50.720;7.452;2023-03-01T06:30:03;26.05;;;10.45;;
30553;SDS011;17335;50.720;7.452;2023-03-01T06:32:30;23.63;;;10.50;;
30553;SDS011;17335;50.720;7.452;2023-03-01T06:34:57;31.65;;;11.27;;
30553;SDS011;17335;50.720;7.452;2023-03-01T06:37:25;22.55;;;10.35;;
30553;SDS011;17335;50.720;7.452;2023-03-01T06:39:51;27.13;;;12.05;;
30553;SDS011;17335;50.720;7.452;2023-03-01T06:42:18;29.52;;;12.00;;
30553;SDS011;17335;50.720;7.452;2023-03-01T06:44:44;29.45;;;10.90;;
30553;SDS011;17335;50.720;7.452;2023-03-01T06:47:12;21.05;;;10.75;;
30553;SDS011;17335;50.720;7.452;2023-03-01T06:49:39;26.75;;;10.10;;
30553;SDS011;17335;50.720;7.452;2023-03-01T06:52:05;29.48;;;10.25;;
30553;SDS011;17335;50.720;7.452;2023-03-01T06:54:32;25.00;;;9.88;;
30553;SDS011;17335;50.720;7.452;2023-03-01T06:56:58;20.95;;;10.43;;
30553;SDS011;17335;50.720;7.452;2023-03-01T06:59:25;21.13;;;9.30;;
30553;SDS011;17335;50.720;7.452;2023-03-01T07:01:51;18.50;;;8.98;;
30553;SDS011;17335;50.720;7.452;2023-03-01T07:04:18;18.55;;;9.15;;
30553;SDS011;17335;50.720;7.452;2023-03-01T07:06:45;25.52;;;9.50;;
30553;SDS011;17335;50.720;7.452;2023-03-01T07:09:11;25.23;;;10.93;;
30553;SDS011;17335;50.720;7.452;2023-03-01T07:11:38;24.55;;;9.30;;
30553;SDS011;17335;50.720;7.452;2023-03-01T07:14:04;21.83;;;9.07;;
30553;SDS011;17335;50.720;7.452;2023-03-01T07:16:31;21.88;;;9.52;;
30553;SDS011;17335;50.720;7.452;2023-03-01T07:18:58;22.23;;;9.52;;
30553;SDS011;17335;50.720;7.452;2023-03-01T07:21:26;21.55;;;9.50;;
30553;SDS011;17335;50.720;7.452;2023-03-01T07:23:52;27.35;;;10.30;;
30553;SDS011;17335;50.720;7.452;2023-03-01T07:26:19;23.17;;;9.60;;
30553;SDS011;17335;50.720;7.452;2023-03-01T07:28:45;24.88;;;10.50;;
30553;SDS011;17335;50.720;7.452;2023-03-01T07:31:12;22.85;;;9.27;;
30553;SDS011;17335;50.720;7.452;2023-03-01T07:33:38;29.05;;;11.15;;
30553;SDS011;17335;50.720;7.452;2023-03-01T07:36:05;22.88;;;9.88;;
30553;SDS011;17335;50.720;7.452;2023-03-01T07:38:32;22.85;;;9.38;;
30553;SDS011;17335;50.720;7.452;2023-03-01T07:40:59;22.95;;;10.15;;
30553;SDS011;17335;50.720;7.452;2023-03-01T07:43:28;28.50;;;11.70;;
30553;SDS011;17335;50.720;7.452;2023-03-01T07:46:03;32.10;;;12.68;;
30553;SDS011;17335;50.720;7.452;2023-03-01T07:48:30;33.65;;;13.05;;
30553;SDS011;17335;50.720;7.452;2023-03-01T07:50:58;31.08;;;12.70;;
30553;SDS011;17335;50.720;7.452;2023-03-01T07:53:28;27.60;;;12.05;;
30553;SDS011;17335;50.720;7.452;2023-03-01T07:56:00;25.92;;;12.40;;
30553;SDS011;17335;50.720;7.452;2023-03-01T07:58:31;34.92;;;11.68;;
30553;SDS011;17335;50.720;7.452;2023-03-01T08:01:01;34.63;;;12.52;;
30553;SDS011;17335;50.720;7.452;2023-03-01T08:03:29;30.65;;;12.48;;
30553;SDS011;17335;50.720;7.452;2023-03-01T08:05:56;32.35;;;11.57;;
30553;SDS011;17335;50.720;7.452;2023-03-01T08:08:22;36.05;;;12.90;;
30553;SDS011;17335;50.720;7.452;2023-03-01T08:10:49;21.85;;;10.68;;
30553;SDS011;17335;50.720;7.452;2023-03-01T08:13:16;24.83;;;10.82;;
30553;SDS011;17335;50.720;7.452;2023-03-01T08:15:48;28.13;;;10.95;;
30553;SDS011;17335;50.720;7.452;2023-03-01T08:18:16;27.42;;;11.60;;
30553;SDS011;17335;50.720;7.452;2023-03-01T08:20:44;28.50;;;10.93;;
30553;SDS011;17335;50.720;7.452;2023-03-01T08:23:11;27.63;;;11.05;;
30553;SDS011;17335;50.720;7.452;2023-03-01T08:25:39;28.15;;;10.98;;
30553;SDS011;17335;50.720;7.452;2023-03-01T08:28:05;29.67;;;10.75;;
30553;SDS011;17335;50.720;7.452;2023-03-01T08:30:32;32.42;;;11.20;;
30553;SDS011;17335;50.720;7.452;2023-03-01T08:32:59;26.23;;;10.15;;
30553;SDS011;17335;50.720;7.452;2023-03-01T08:35:26;29.02;;;10.57;;
30553;SDS011;17335;50.720;7.452;2023-03-01T08:37:52;24.98;;;10.55;;
30553;SDS011;17335;50.720;7.452;2023-03-01T08:40:18;27.25;;;11.07;;
30553;SDS011;17335;50.720;7.452;2023-03-01T08:42:45;28.30;;;10.90;;
30553;SDS011;17335;50.720;7.452;2023-03-01T08:45:11;19.15;;;9.18;;
30553;SDS011;17335;50.720;7.452;2023-03-01T08:47:40;27.88;;;9.35;;
30553;SDS011;17335;50.720;7.452;2023-03-01T08:50:06;21.02;;;10.73;;
30553;SDS011;17335;50.720;7.452;2023-03-01T08:52:34;22.35;;;10.13;;
30553;SDS011;17335;50.720;7.452;2023-03-01T08:55:00;28.60;;;10.30;;
30553;SDS011;17335;50.720;7.452;2023-03-01T08:57:28;23.60;;;9.68;;
30553;SDS011;17335;50.720;7.452;2023-03-01T08:59:54;20.08;;;9.50;;
30553;SDS011;17335;50.720;7.452;2023-03-01T09:02:22;24.15;;;10.00;;
30553;SDS011;17335;50.720;7.452;2023-03-01T09:04:49;20.75;;;9.50;;
30553;SDS011;17335;50.720;7.452;2023-03-01T09:07:16;21.85;;;9.57;;
30553;SDS011;17335;50.720;7.452;2023-03-01T09:09:42;23.60;;;9.32;;
30553;SDS011;17335;50.720;7.452;2023-03-01T09:12:09;23.02;;;9.18;;
30553;SDS011;17335;50.720;7.452;2023-03-01T09:14:35;22.70;;;9.50;;
30553;SDS011;17335;50.720;7.452;2023-03-01T09:17:04;18.75;;;8.77;;
30553;SDS011;17335;50.720;7.452;2023-03-01T09:19:31;22.27;;;9.13;;
30553;SDS011;17335;50.720;7.452;2023-03-01T09:21:57;20.45;;;9.77;;
30553;SDS011;17335;50.720;7.452;2023-03-01T09:24:24;23.10;;;8.85;;
30553;SDS011;17335;50.720;7.452;2023-03-01T09:26:54;19.08;;;8.88;;
30553;SDS011;17335;50.720;7.452;2023-03-01T09:29:22;19.52;;;8.90;;
30553;SDS011;17335;50.720;7.452;2023-03-01T09:31:49;19.00;;;8.43;;
30553;SDS011;17335;50.720;7.452;2023-03-01T09:34:15;19.77;;;9.77;;
30553;SDS011;17335;50.720;7.452;2023-03-01T09:36:45;23.52;;;9.00;;
30553;SDS011;17335;50.720;7.452;2023-03-01T09:39:12;18.95;;;8.90;;
30553;SDS011;17335;50.720;7.452;2023-03-01T09:47:17;22.27;;;9.75;;
30553;SDS011;17335;50.720;7.452;2023-03-01T09:52:47;17.90;;;8.77;;
30553;SDS011;17335;50.720;7.452;2023-03-01T09:55:39;21.73;;;8.63;;
30553;SDS011;17335;50.720;7.452;2023-03-01T10:00:40;18.67;;;8.23;;
30553;SDS011;17335;50.720;7.452;2023-03-01T10:08:29;23.23;;;8.25;;
30553;SDS011;17335;50.720;7.452;2023-03-01T10:11:04;17.70;;;8.18;;
30553;SDS011;17335;50.720;7.452;2023-03-01T10:13:50;19.13;;;8.30;;
30553;SDS011;17335;50.720;7.452;2023-03-01T10:19:27;17.73;;;8.18;;
30553;SDS011;17335;50.720;7.452;2023-03-01T10:22:16;16.95;;;7.95;;
30553;SDS011;17335;50.720;7.452;2023-03-01T10:24:52;18.17;;;7.93;;
30553;SDS011;17335;50.720;7.452;2023-03-01T10:27:25;22.48;;;8.90;;
30553;SDS011;17335;50.720;7.452;2023-03-01T10:32:54;21.33;;;8.38;;
30553;SDS011;17335;50.720;7.452;2023-03-01T10:35:27;16.75;;;7.38;;
30553;SDS011;17335;50.720;7.452;2023-03-01T10:38:02;19.20;;;8.38;;
30553;SDS011;17335;50.720;7.452;2023-03-01T10:40:32;16.50;;;7.78;;
30553;SDS011;17335;50.720;7.452;2023-03-01T10:43:04;17.65;;;8.07;;
30553;SDS011;17335;50.720;7.452;2023-03-01T10:45:36;20.30;;;7.65;;
30553;SDS011;17335;50.720;7.452;2023-03-01T10:50:34;15.43;;;7.30;;
30553;SDS011;17335;50.720;7.452;2023-03-01T10:53:20;16.30;;;7.82;;
30553;SDS011;17335;50.720;7.452;2023-03-01T10:55:47;17.23;;;7.28;;
30553;SDS011;17335;50.720;7.452;2023-03-01T10:58:33;18.02;;;8.48;;
30553;SDS011;17335;50.720;7.452;2023-03-01T11:01:03;13.15;;;6.90;;
30553;SDS011;17335;50.720;7.452;2023-03-01T11:03:42;14.55;;;7.15;;
30553;SDS011;17335;50.720;7.452;2023-03-01T11:08:42;16.02;;;7.55;;
30553;SDS011;17335;50.720;7.452;2023-03-01T11:14:03;15.82;;;6.72;;
30553;SDS011;17335;50.720;7.452;2023-03-01T11:16:58;14.27;;;6.57;;
30553;SDS011;17335;50.720;7.452;2023-03-01T11:19:27;14.15;;;6.40;;
30553;SDS011;17335;50.720;7.452;2023-03-01T11:22:05;16.52;;;7.30;;
30553;SDS011;17335;50.720;7.452;2023-03-01T11:24:42;15.82;;;6.60;;
30553;SDS011;17335;50.720;7.452;2023-03-01T11:27:17;19.05;;;7.47;;
30553;SDS011;17335;50.720;7.452;2023-03-01T11:29:52;16.50;;;6.57;;
30553;SDS011;17335;50.720;7.452;2023-03-01T11:32:24;15.55;;;5.85;;
30553;SDS011;17335;50.720;7.452;2023-03-01T11:34:59;14.73;;;6.65;;
30553;SDS011;17335;50.720;7.452;2023-03-01T11:37:30;15.82;;;6.95;;
30553;SDS011;17335;50.720;7.452;2023-03-01T11:40:10;12.40;;;6.10;;
30553;SDS011;17335;50.720;7.452;2023-03-01T11:45:24;11.52;;;5.65;;
30553;SDS011;17335;50.720;7.452;2023-03-01T11:48:03;11.75;;;5.28;;
30553;SDS011;17335;50.720;7.452;2023-03-01T11:51:24;11.57;;;5.88;;
30553;SDS011;17335;50.720;7.452;2023-03-01T12:08:20;13.40;;;5.90;;
30553;SDS011;17335;50.720;7.452;2023-03-01T12:11:26;10.80;;;4.75;;
30553;SDS011;17335;50.720;7.452;2023-03-01T12:14:09;8.68;;;4.82;;
30553;SDS011;17335;50.720;7.452;2023-03-01T12:28:57;11.90;;;4.95;;
30553;SDS011;17335;50.720;7.452;2023-03-01T12:31:49;9.13;;;4.60;;
30553;SDS011;17335;50.720;7.452;2023-03-01T12:51:14;10.48;;;5.63;;
30553;SDS011;17335;50.720;7.452;2023-03-01T12:53:45;14.23;;;5.82;;
30553;SDS011;17335;50.720;7.452;2023-03-01T12:56:24;11.18;;;5.30;;
30553;SDS011;17335;50.720;7.452;2023-03-01T12:59:02;11.82;;;5.53;;
30553;SDS011;17335;50.720;7.452;2023-03-01T13:06:43;13.93;;;5.15;;
30553;SDS011;17335;50.720;7.452;2023-03-01T13:11:54;8.18;;;4.32;;
30553;SDS011;17335;50.720;7.452;2023-03-01T13:16:49;15.25;;;5.10;;
30553;SDS011;17335;50.720;7.452;2023-03-01T13:19:17;10.57;;;5.10;;
30553;SDS011;17335;50.720;7.452;2023-03-01T13:21:47;12.23;;;4.93;;
30553;SDS011;17335;50.720;7.452;2023-03-01T13:32:28;10.93;;;4.13;;
30553;SDS011;17335;50.720;7.452;2023-03-01T13:37:46;7.03;;;3.85;;
30553;SDS011;17335;50.720;7.452;2023-03-01T13:42:43;13.70;;;4.30;;
30553;SDS011;17335;50.720;7.452;2023-03-01T13:45:40;11.68;;;4.70;;
30553;SDS011;17335;50.720;7.452;2023-03-01T13:48:17;8.80;;;4.10;;
30553;SDS011;17335;50.720;7.452;2023-03-01T13:50:51;7.82;;;4.03;;
30553;SDS011;17335;50.720;7.452;2023-03-01T13:53:24;8.30;;;3.88;;
30553;SDS011;17335;50.720;7.452;2023-03-01T13:55:58;9.95;;;3.88;;
30553;SDS011;17335;50.720;7.452;2023-03-01T13:58:29;8.13;;;4.03;;
30553;SDS011;17335;50.720;7.452;2023-03-01T14:04:25;7.75;;;3.65;;
30553;SDS011;17335;50.720;7.452;2023-03-01T14:09:54;8.30;;;4.05;;
30553;SDS011;17335;50.720;7.452;2023-03-01T14:20:30;8.98;;;3.70;;
30553;SDS011;17335;50.720;7.452;2023-03-01T14:23:02;10.20;;;4.10;;
30553;SDS011;17335;50.720;7.452;2023-03-01T14:25:45;8.65;;;3.40;;
30553;SDS011;17335;50.720;7.452;2023-03-01T14:28:15;7.55;;;3.63;;
30553;SDS011;17335;50.720;7.452;2023-03-01T14:30:48;10.25;;;4.25;;
30553;SDS011;17335;50.720;7.452;2023-03-01T14:33:22;9.30;;;4.10;;
30553;SDS011;17335;50.720;7.452;2023-03-01T14:36:10;8.48;;;3.65;;
30553;SDS011;17335;50.720;7.452;2023-03-01T14:38:40;8.80;;;3.90;;
30553;SDS011;17335;50.720;7.452;2023-03-01T14:41:15;12.02;;;3.92;;
30553;SDS011;17335;50.720;7.452;2023-03-01T14:43:45;8.85;;;3.70;;
30553;SDS011;17335;50.720;7.452;2023-03-01T14:46:21;7.53;;;3.92;;
30553;SDS011;17335;50.720;7.452;2023-03-01T14:48:53;10.00;;;3.72;;
30553;SDS011;17335;50.720;7.452;2023-03-01T14:51:23;7.25;;;3.85;;
30553;SDS011;17335;50.720;7.452;2023-03-01T14:53:50;10.05;;;3.83;;
30553;SDS011;17335;50.720;7.452;2023-03-01T14:56:17;9.02;;;3.80;;
30553;SDS011;17335;50.720;7.452;2023-03-01T14:58:44;8.35;;;3.70;;
30553;SDS011;17335;50.720;7.452;2023-03-01T15:01:14;6.35;;;3.90;;
30553;SDS011;17335;50.720;7.452;2023-03-01T15:03:44;11.30;;;3.65;;
30553;SDS011;17335;50.720;7.452;2023-03-01T15:06:20;6.60;;;3.10;;
30553;SDS011;17335;50.720;7.452;2023-03-01T15:08:50;7.53;;;3.22;;
30553;SDS011;17335;50.720;7.452;2023-03-01T15:11:29;8.93;;;3.55;;
30553;SDS011;17335;50.720;7.452;2023-03-01T15:13:57;7.47;;;2.97;;
30553;SDS011;17335;50.720;7.452;2023-03-01T15:19:00;7.65;;;3.42;;
30553;SDS011;17335;50.720;7.452;2023-03-01T15:21:37;5.80;;;2.85;;
30553;SDS011;17335;50.720;7.452;2023-03-01T15:24:24;8.48;;;3.35;;
30553;SDS011;17335;50.720;7.452;2023-03-01T15:26:57;10.30;;;4.38;;
30553;SDS011;17335;50.720;7.452;2023-03-01T15:29:29;8.98;;;4.07;;
30553;SDS011;17335;50.720;7.452;2023-03-01T15:32:01;7.45;;;3.35;;
30553;SDS011;17335;50.720;7.452;2023-03-01T15:34:36;5.97;;;3.03;;
30553;SDS011;17335;50.720;7.452;2023-03-01T15:37:05;10.30;;;3.38;;
30553;SDS011;17335;50.720;7.452;2023-03-01T15:39:54;8.75;;;3.45;;
30553;SDS011;17335;50.720;7.452;2023-03-01T15:47:56;7.55;;;3.53;;
30553;SDS011;17335;50.720;7.452;2023-03-01T15:50:28;14.25;;;3.80;;
30553;SDS011;17335;50.720;7.452;2023-03-01T15:52:57;9.98;;;4.05;;
30553;SDS011;17335;50.720;7.452;2023-03-01T15:55:29;7.15;;;3.40;;
30553;SDS011;17335;50.720;7.452;2023-03-01T16:00:27;7.05;;;3.63;;
30553;SDS011;17335;50.720;7.452;2023-03-01T16:02:54;7.70;;;3.83;;
30553;SDS011;17335;50.720;7.452;2023-03-01T16:05:23;8.25;;;3.70;;
30553;SDS011;17335;50.720;7.452;2023-03-01T16:07:53;7.85;;;3.40;;
30553;SDS011;17335;50.720;7.452;2023-03-01T16:10:20;10.65;;;3.88;;
30553;SDS011;17335;50.720;7.452;2023-03-01T16:12:47;5.72;;;3.20;;
30553;SDS011;17335;50.720;7.452;2023-03-01T16:15:34;8.10;;;3.40;;
30553;SDS011;17335;50.720;7.452;2023-03-01T16:18:02;8.32;;;3.55;;
30553;SDS011;17335;50.720;7.452;2023-03-01T16:20:29;11.77;;;3.83;;
30553;SDS011;17335;50.720;7.452;2023-03-01T16:22:59;7.30;;;3.35;;
30553;SDS011;17335;50.720;7.452;2023-03-01T16:25:27;8.02;;;3.67;;
30553;SDS011;17335;50.720;7.452;2023-03-01T16:27:54;9.65;;;4.22;;
30553;SDS011;17335;50.720;7.452;2023-03-01T16:30:22;8.68;;;4.10;;
30553;SDS011;17335;50.720;7.452;2023-03-01T16:32:49;7.97;;;4.20;;
30553;SDS011;17335;50.720;7.452;2023-03-01T16:35:17;11.18;;;4.30;;
30553;SDS011;17335;50.720;7.452;2023-03-01T16:37:46;9.25;;;4.35;;
30553;SDS011;17335;50.720;7.452;2023-03-01T16:42:48;11.63;;;4.10;;
30553;SDS011;17335;50.720;7.452;2023-03-01T16:45:17;16.67;;;4.30;;
30553;SDS011;17335;50.720;7.452;2023-03-01T16:47:49;10.68;;;4.68;;
30553;SDS011;17335;50.720;7.452;2023-03-01T16:50:19;12.52;;;4.85;;
30553;SDS011;17335;50.720;7.452;2023-03-01T16:52:45;9.23;;;3.78;;
30553;SDS011;17335;50.720;7.452;2023-03-01T16:55:12;10.80;;;4.57;;
30553;SDS011;17335;50.720;7.452;2023-03-01T16:57:38;12.10;;;5.22;;
30553;SDS011;17335;50.720;7.452;2023-03-01T17:00:07;11.23;;;4.57;;
30553;SDS011;17335;50.720;7.452;2023-03-01T17:02:35;14.82;;;4.45;;
30553;SDS011;17335;50.720;7.452;2023-03-01T17:05:03;12.32;;;5.22;;
30553;SDS011;17335;50.720;7.452;2023-03-01T17:07:30;16.85;;;6.95;;
30553;SDS011;17335;50.720;7.452;2023-03-01T17:10:00;13.13;;;6.35;;
30553;SDS011;17335;50.720;7.452;2023-03-01T17:12:27;10.32;;;5.00;;
30553;SDS011;17335;50.720;7.452;2023-03-01T17:14:54;14.10;;;6.85;;
30553;SDS011;17335;50.720;7.452;2023-03-01T17:17:20;11.27;;;5.63;;
30553;SDS011;17335;50.720;7.452;2023-03-01T17:19:47;12.40;;;5.55;;